sensor_id;sensor_type;location;lat;lon;timestamp;P1;durP1;ratioP1;P2;durP2;ratioP2
17953;SDS011;9102;53.548;9.926;2023-03-01T00:01:01;12.00;;;6.78;;
17953;SDS011;9102;53.548;9.926;2023-03-01T00:03:29;17.58;;;7.30;;
17953;SDS011;9102;53.548;9.926;2023-03-01T00:05:56;17.38;;;7.82;;
17953;SDS011;9102;53.548;9.926;2023-03-01T00:08:23;15.30;;;7.82;;
17953;SDS011;9102;53.548;9.926;2023-03-01T00:11:00;17.75;;;8.05;;
17953;SDS011;9102;53.548;9.926;2023-03-01T00:13:28;15.10;;;7.57;;
17953;SDS011;9102;53.548;9.926;2023-03-01T00:15:55;15.15;;;7.38;;
17953;SDS011;9102;53.548;9.926;2023-03-01T00:18:22;15.40;;;7.90;;
17953;SDS011;9102;53.548;9.926;2023-03-01T00:20:50;15.00;;;7.38;;
17953;SDS011;9102;53.548;9.926;2023-03-01T00:23:17;13.90;;;6.97;;
17953;SDS011;9102;53.548;9.926;2023-03-01T00:25:44;16.92;;;7.22;;
17953;SDS011;9102;53.548;9.926;2023-03-01T00:28:12;14.70;;;6.63;;
17953;SDS011;9102;53.548;9.926;2023-03-01T00:30:39;17.63;;;7.45;;
17953;SDS011;9102;53.548;9.926;2023-03-01T00:33:05;17.63;;;7.70;;
17953;SDS011;9102;53.548;9.926;2023-03-01T00:35:32;15.82;;;7.43;;
17953;SDS011;9102;53.548;9.926;2023-03-01T00:38:00;15.57;;;7.30;;
17953;SDS011;9102;53.548;9.926;2023-03-01T00:40:29;15.77;;;7.45;;
17953;SDS011;9102;53.548;9.926;2023-03-01T00:42:59;12.00;;;7.15;;
17953;SDS011;9102;53.548;9.926;2023-03-01T00:45:27;15.60;;;7.32;;
17953;SDS011;9102;53.548;9.926;2023-03-01T00:47:55;14.25;;;7.55;;
17953;SDS011;9102;53.548;9.926;2023-03-01T00:50:23;12.10;;;6.80;;
17953;SDS011;9102;53.548;9.926;2023-03-01T00:52:51;11.63;;;6.70;;
17953;SDS011;9102;53.548;9.926;2023-03-01T00:55:19;14.32;;;6.75;;
17953;SDS011;9102;53.548;9.926;2023-03-01T00:57:47;11.18;;;6.75;;
17953;SDS011;9102;53.548;9.926;2023-03-01T01:00:14;13.95;;;6.85;;
17953;SDS011;9102;53.548;9.926;2023-03-01T01:02:43;12.57;;;6.82;;
17953;SDS011;9102;53.548;9.926;2023-03-01T01:05:10;14.90;;;6.63;;
17953;SDS011;9102;53.548;9.926;2023-03-01T01:07:37;13.05;;;6.65;;
17953;SDS011;9102;53.548;9.926;2023-03-01T01:10:06;11.88;;;6.68;;
17953;SDS011;9102;53.548;9.926;2023-03-01T01:12:37;13.98;;;6.53;;
17953;SDS011;9102;53.548;9.926;2023-03-01T01:15:05;11.75;;;6.82;;
17953;SDS011;9102;53.548;9.926;2023-03-01T01:17:32;13.98;;;6.53;;
17953;SDS011;9102;53.548;9.926;2023-03-01T01:20:00;11.25;;;6.43;;
17953;SDS011;9102;53.548;9.926;2023-03-01T01:22:27;14.93;;;7.43;;
17953;SDS011;9102;53.548;9.926;2023-03-01T01:24:54;12.30;;;6.25;;
17953;SDS011;9102;53.548;9.926;2023-03-01T01:27:21;10.52;;;5.85;;
17953;SDS011;9102;53.548;9.926;2023-03-01T01:29:47;10.93;;;5.38;;
17953;SDS011;9102;53.548;9.926;2023-03-01T01:32:14;9.98;;;5.80;;
17953;SDS011;9102;53.548;9.926;2023-03-01T01:34:41;11.45;;;5.45;;
17953;SDS011;9102;53.548;9.926;2023-03-01T01:37:09;10.02;;;5.40;;
17953;SDS011;9102;53.548;9.926;2023-03-01T01:39:36;10.40;;;5.30;;
17953;SDS011;9102;53.548;9.926;2023-03-01T01:42:03;9.10;;;5.45;;
17953;SDS011;9102;53.548;9.926;2023-03-01T01:44:29;8.60;;;4.90;;
17953;SDS011;9102;53.548;9.926;2023-03-01T01:46:57;10.48;;;5.63;;
17953;SDS011;9102;53.548;9.926;2023-03-01T01:49:27;9.35;;;5.20;;
17953;SDS011;9102;53.548;9.926;2023-03-01T01:52:00;8.52;;;4.30;;
17953;SDS011;9102;53.548;9.926;2023-03-01T01:54:36;8.00;;;4.10;;
17953;SDS011;9102;53.548;9.926;2023-03-01T02:00:28;8.65;;;4.38;;
17953;SDS011;9102;53.548;9.926;2023-03-01T02:02:56;10.10;;;4.43;;
17953;SDS011;9102;53.548;9.926;2023-03-01T02:05:26;7.50;;;3.25;;
17953;SDS011;9102;53.548;9.926;2023-03-01T02:07:59;5.80;;;3.10;;
17953;SDS011;9102;53.548;9.926;2023-03-01T02:10:27;8.90;;;3.53;;
17953;SDS011;9102;53.548;9.926;2023-03-01T02:12:54;7.45;;;3.28;;
17953;SDS011;9102;53.548;9.926;2023-03-01T02:15:22;5.28;;;3.05;;
17953;SDS011;9102;53.548;9.926;2023-03-01T02:17:49;6.57;;;3.25;;
17953;SDS011;9102;53.548;9.926;2023-03-01T02:20:18;7.15;;;3.17;;
17953;SDS011;9102;53.548;9.926;2023-03-01T02:22:52;5.05;;;2.83;;
17953;SDS011;9102;53.548;9.926;2023-03-01T02:25:24;5.68;;;3.00;;
17953;SDS011;9102;53.548;9.926;2023-03-01T02:27:55;7.57;;;3.17;;
17953;SDS011;9102;53.548;9.926;2023-03-01T02:30:29;6.50;;;3.17;;
17953;SDS011;9102;53.548;9.926;2023-03-01T02:32:57;5.72;;;2.90;;
17953;SDS011;9102;53.548;9.926;2023-03-01T02:35:27;7.88;;;3.13;;
17953;SDS011;9102;53.548;9.926;2023-03-01T02:37:58;6.15;;;2.92;;
17953;SDS011;9102;53.548;9.926;2023-03-01T02:40:26;5.00;;;2.60;;
17953;SDS011;9102;53.548;9.926;2023-03-01T02:42:56;4.32;;;2.70;;
17953;SDS011;9102;53.548;9.926;2023-03-01T02:45:25;5.07;;;2.80;;
17953;SDS011;9102;53.548;9.926;2023-03-01T02:47:55;6.45;;;3.50;;
17953;SDS011;9102;53.548;9.926;2023-03-01T02:50:24;8.32;;;2.90;;
17953;SDS011;9102;53.548;9.926;2023-03-01T02:53:07;7.82;;;3.45;;
17953;SDS011;9102;53.548;9.926;2023-03-01T02:55:39;5.20;;;2.95;;
17953;SDS011;9102;53.548;9.926;2023-03-01T02:58:06;6.25;;;2.85;;
17953;SDS011;9102;53.548;9.926;2023-03-01T03:00:34;4.80;;;2.95;;
17953;SDS011;9102;53.548;9.926;2023-03-01T03:03:06;7.53;;;3.38;;
17953;SDS011;9102;53.548;9.926;2023-03-01T03:05:34;7.55;;;3.08;;
17953;SDS011;9102;53.548;9.926;2023-03-01T03:08:02;5.45;;;3.17;;
17953;SDS011;9102;53.548;9.926;2023-03-01T03:10:30;8.93;;;3.50;;
17953;SDS011;9102;53.548;9.926;2023-03-01T03:13:00;7.03;;;3.05;;
17953;SDS011;9102;53.548;9.926;2023-03-01T03:15:29;7.15;;;3.00;;
17953;SDS011;9102;53.548;9.926;2023-03-01T03:17:57;6.72;;;2.90;;
17953;SDS011;9102;53.548;9.926;2023-03-01T03:20:26;5.00;;;3.65;;
17953;SDS011;9102;53.548;9.926;2023-03-01T03:22:55;6.85;;;4.13;;
17953;SDS011;9102;53.548;9.926;2023-03-01T03:25:24;5.47;;;3.35;;
17953;SDS011;9102;53.548;9.926;2023-03-01T03:27:52;8.07;;;3.20;;
17953;SDS011;9102;53.548;9.926;2023-03-01T03:30:22;8.30;;;3.88;;
17953;SDS011;9102;53.548;9.926;2023-03-01T03:32:50;6.75;;;3.42;;
17953;SDS011;9102;53.548;9.926;2023-03-01T03:38:13;9.82;;;3.50;;
17953;SDS011;9102;53.548;9.926;2023-03-01T03:40:42;6.72;;;3.28;;
17953;SDS011;9102;53.548;9.926;2023-03-01T03:43:11;7.03;;;2.80;;
17953;SDS011;9102;53.548;9.926;2023-03-01T03:45:39;17.13;;;7.45;;
17953;SDS011;9102;53.548;9.926;2023-03-01T03:48:07;7.50;;;3.50;;
17953;SDS011;9102;53.548;9.926;2023-03-01T03:50:35;5.72;;;2.95;;
17953;SDS011;9102;53.548;9.926;2023-03-01T03:53:04;7.10;;;3.05;;
17953;SDS011;9102;53.548;9.926;2023-03-01T03:55:32;4.65;;;2.58;;
17953;SDS011;9102;53.548;9.926;2023-03-01T03:58:00;5.28;;;2.75;;
17953;SDS011;9102;53.548;9.926;2023-03-01T04:00:32;5.45;;;2.83;;
17953;SDS011;9102;53.548;9.926;2023-03-01T04:02:59;5.97;;;2.55;;
17953;SDS011;9102;53.548;9.926;2023-03-01T04:05:27;6.00;;;3.17;;
17953;SDS011;9102;53.548;9.926;2023-03-01T04:07:55;6.95;;;2.97;;
17953;SDS011;9102;53.548;9.926;2023-03-01T04:10:34;4.80;;;2.38;;
17953;SDS011;9102;53.548;9.926;2023-03-01T04:13:03;4.50;;;2.65;;
17953;SDS011;9102;53.548;9.926;2023-03-01T04:15:30;4.68;;;2.70;;
17953;SDS011;9102;53.548;9.926;2023-03-01T04:17:58;4.45;;;2.67;;
17953;SDS011;9102;53.548;9.926;2023-03-01T04:20:26;6.28;;;2.40;;
17953;SDS011;9102;53.548;9.926;2023-03-01T04:23:00;4.97;;;2.58;;
17953;SDS011;9102;53.548;9.926;2023-03-01T04:25:36;5.47;;;2.75;;
17953;SDS011;9102;53.548;9.926;2023-03-01T04:28:04;6.13;;;2.58;;
17953;SDS011;9102;53.548;9.926;2023-03-01T04:30:30;4.00;;;2.42;;
17953;SDS011;9102;53.548;9.926;2023-03-01T04:33:00;5.38;;;2.78;;
17953;SDS011;9102;53.548;9.926;2023-03-01T04:35:28;4.82;;;2.85;;
17953;SDS011;9102;53.548;9.926;2023-03-01T04:37:55;8.75;;;3.67;;
17953;SDS011;9102;53.548;9.926;2023-03-01T04:40:22;5.38;;;2.25;;
17953;SDS011;9102;53.548;9.926;2023-03-01T04:42:50;7.18;;;2.40;;
17953;SDS011;9102;53.548;9.926;2023-03-01T04:48:40;6.60;;;3.55;;
17953;SDS011;9102;53.548;9.926;2023-03-01T04:51:08;5.68;;;2.60;;
17953;SDS011;9102;53.548;9.926;2023-03-01T04:53:38;7.18;;;2.97;;
17953;SDS011;9102;53.548;9.926;2023-03-01T04:56:05;5.93;;;2.90;;
17953;SDS011;9102;53.548;9.926;2023-03-01T04:58:34;5.18;;;2.95;;
17953;SDS011;9102;53.548;9.926;2023-03-01T05:01:01;5.88;;;3.28;;
17953;SDS011;9102;53.548;9.926;2023-03-01T05:03:39;4.63;;;2.67;;
17953;SDS011;9102;53.548;9.926;2023-03-01T05:06:07;5.10;;;2.83;;
17953;SDS011;9102;53.548;9.926;2023-03-01T05:08:33;4.85;;;2.97;;
17953;SDS011;9102;53.548;9.926;2023-03-01T05:11:03;5.63;;;3.47;;
17953;SDS011;9102;53.548;9.926;2023-03-01T05:13:30;4.53;;;2.65;;
17953;SDS011;9102;53.548;9.926;2023-03-01T05:19:20;8.60;;;3.17;;
17953;SDS011;9102;53.548;9.926;2023-03-01T05:21:48;5.85;;;3.08;;
17953;SDS011;9102;53.548;9.926;2023-03-01T05:24:30;5.18;;;2.75;;
17953;SDS011;9102;53.548;9.926;2023-03-01T05:26:59;6.68;;;3.03;;
17953;SDS011;9102;53.548;9.926;2023-03-01T05:29:27;4.22;;;3.15;;
17953;SDS011;9102;53.548;9.926;2023-03-01T05:31:56;6.60;;;2.83;;
17953;SDS011;9102;53.548;9.926;2023-03-01T05:34:26;7.65;;;2.88;;
17953;SDS011;9102;53.548;9.926;2023-03-01T05:36:53;7.43;;;3.58;;
17953;SDS011;9102;53.548;9.926;2023-03-01T05:39:21;5.18;;;3.58;;
17953;SDS011;9102;53.548;9.926;2023-03-01T05:41:51;5.75;;;2.80;;
17953;SDS011;9102;53.548;9.926;2023-03-01T05:44:19;7.43;;;3.45;;
17953;SDS011;9102;53.548;9.926;2023-03-01T05:46:46;6.55;;;3.13;;
17953;SDS011;9102;53.548;9.926;2023-03-01T05:49:14;6.40;;;3.05;;
17953;SDS011;9102;53.548;9.926;2023-03-01T05:51:43;4.38;;;2.83;;
17953;SDS011;9102;53.548;9.926;2023-03-01T05:54:13;5.47;;;3.13;;
17953;SDS011;9102;53.548;9.926;2023-03-01T05:56:40;8.30;;;3.45;;
17953;SDS011;9102;53.548;9.926;2023-03-01T05:59:07;5.07;;;2.90;;
17953;SDS011;9102;53.548;9.926;2023-03-01T06:01:34;12.13;;;3.97;;
17953;SDS011;9102;53.548;9.926;2023-03-01T06:04:02;6.30;;;3.13;;
17953;SDS011;9102;53.548;9.926;2023-03-01T06:06:29;5.95;;;3.28;;
17953;SDS011;9102;53.548;9.926;2023-03-01T06:09:01;8.27;;;3.50;;
17953;SDS011;9102;53.548;9.926;2023-03-01T06:11:28;9.00;;;3.70;;
17953;SDS011;9102;53.548;9.926;2023-03-01T06:13:54;8.07;;;4.15;;
17953;SDS011;9102;53.548;9.926;2023-03-01T06:16:21;5.75;;;3.42;;
17953;SDS011;9102;53.548;9.926;2023-03-01T06:18:49;10.35;;;3.42;;
17953;SDS011;9102;53.548;9.926;2023-03-01T06:21:15;14.93;;;3.80;;
17953;SDS011;9102;53.548;9.926;2023-03-01T06:23:42;6.82;;;3.33;;
17953;SDS011;9102;53.548;9.926;2023-03-01T06:26:10;8.63;;;3.75;;
17953;SDS011;9102;53.548;9.926;2023-03-01T06:28:37;6.53;;;4.05;;
17953;SDS011;9102;53.548;9.926;2023-03-01T06:31:04;5.93;;;3.55;;
17953;SDS011;9102;53.548;9.926;2023-03-01T06:33:33;8.48;;;3.97;;
17953;SDS011;9102;53.548;9.926;2023-03-01T06:36:01;6.78;;;3.75;;
17953;SDS011;9102;53.548;9.926;2023-03-01T06:38:27;10.30;;;4.15;;
17953;SDS011;9102;53.548;9.926;2023-03-01T06:40:54;8.75;;;3.72;;
17953;SDS011;9102;53.548;9.926;2023-03-01T06:43:23;9.50;;;4.15;;
17953;SDS011;9102;53.548;9.926;2023-03-01T06:45:50;7.97;;;4.80;;
17953;SDS011;9102;53.548;9.926;2023-03-01T06:48:17;12.02;;;4.25;;
17953;SDS011;9102;53.548;9.926;2023-03-01T06:50:44;9.25;;;5.15;;
17953;SDS011;9102;53.548;9.926;2023-03-01T06:53:10;10.88;;;6.30;;
17953;SDS011;9102;53.548;9.926;2023-03-01T06:55:37;14.68;;;7.70;;
17953;SDS011;9102;53.548;9.926;2023-03-01T06:58:04;11.52;;;7.10;;
17953;SDS011;9102;53.548;9.926;2023-03-01T07:00:32;7.63;;;5.55;;
17953;SDS011;9102;53.548;9.926;2023-03-01T07:02:59;11.65;;;5.80;;
17953;SDS011;9102;53.548;9.926;2023-03-01T07:05:27;9.15;;;5.70;;
17953;SDS011;9102;53.548;9.926;2023-03-01T07:07:54;9.80;;;5.50;;
17953;SDS011;9102;53.548;9.926;2023-03-01T07:10:21;9.77;;;5.32;;
17953;SDS011;9102;53.548;9.926;2023-03-01T07:12:48;10.32;;;5.95;;
17953;SDS011;9102;53.548;9.926;2023-03-01T07:15:15;10.77;;;5.10;;
17953;SDS011;9102;53.548;9.926;2023-03-01T07:17:44;11.20;;;4.70;;
17953;SDS011;9102;53.548;9.926;2023-03-01T07:20:12;12.80;;;4.65;;
17953;SDS011;9102;53.548;9.926;2023-03-01T07:22:40;9.80;;;5.00;;
17953;SDS011;9102;53.548;9.926;2023-03-01T07:25:08;12.43;;;4.95;;
17953;SDS011;9102;53.548;9.926;2023-03-01T07:27:35;12.27;;;4.82;;
17953;SDS011;9102;53.548;9.926;2023-03-01T07:30:02;12.05;;;4.57;;
17953;SDS011;9102;53.548;9.926;2023-03-01T07:32:29;12.30;;;4.97;;
17953;SDS011;9102;53.548;9.926;2023-03-01T07:34:57;9.00;;;4.38;;
17953;SDS011;9102;53.548;9.926;2023-03-01T07:37:24;10.93;;;5.05;;
17953;SDS011;9102;53.548;9.926;2023-03-01T07:39:51;13.73;;;4.80;;
17953;SDS011;9102;53.548;9.926;2023-03-01T07:42:18;10.68;;;4.78;;
17953;SDS011;9102;53.548;9.926;2023-03-01T07:44:44;12.13;;;4.85;;
17953;SDS011;9102;53.548;9.926;2023-03-01T07:47:11;14.10;;;5.05;;
17953;SDS011;9102;53.548;9.926;2023-03-01T07:49:38;11.00;;;5.20;;
17953;SDS011;9102;53.548;9.926;2023-03-01T07:52:06;9.98;;;5.18;;
17953;SDS011;9102;53.548;9.926;2023-03-01T07:54:35;13.68;;;5.50;;
17953;SDS011;9102;53.548;9.926;2023-03-01T07:57:02;14.65;;;5.28;;
17953;SDS011;9102;53.548;9.926;2023-03-01T07:59:29;15.30;;;5.95;;
17953;SDS011;9102;53.548;9.926;2023-03-01T08:01:56;15.60;;;7.45;;
17953;SDS011;9102;53.548;9.926;2023-03-01T08:04:23;16.75;;;7.88;;
17953;SDS011;9102;53.548;9.926;2023-03-01T08:06:51;12.45;;;6.00;;
17953;SDS011;9102;53.548;9.926;2023-03-01T08:09:19;10.55;;;6.00;;
17953;SDS011;9102;53.548;9.926;2023-03-01T08:11:47;14.55;;;6.90;;
17953;SDS011;9102;53.548;9.926;2023-03-01T08:14:14;16.10;;;7.20;;
17953;SDS011;9102;53.548;9.926;2023-03-01T08:16:40;15.40;;;7.43;;
17953;SDS011;9102;53.548;9.926;2023-03-01T08:19:08;15.75;;;7.43;;
17953;SDS011;9102;53.548;9.926;2023-03-01T08:21:36;18.50;;;8.93;;
17953;SDS011;9102;53.548;9.926;2023-03-01T08:24:03;16.55;;;7.60;;
17953;SDS011;9102;53.548;9.926;2023-03-01T08:26:33;12.02;;;7.07;;
17953;SDS011;9102;53.548;9.926;2023-03-01T08:29:00;15.48;;;7.50;;
17953;SDS011;9102;53.548;9.926;2023-03-01T08:31:28;16.17;;;7.93;;
17953;SDS011;9102;53.548;9.926;2023-03-01T08:33:57;14.82;;;8.55;;
17953;SDS011;9102;53.548;9.926;2023-03-01T08:36:26;17.05;;;9.25;;
17953;SDS011;9102;53.548;9.926;2023-03-01T08:38:54;18.10;;;9.07;;
17953;SDS011;9102;53.548;9.926;2023-03-01T08:41:21;19.02;;;9.60;;
17953;SDS011;9102;53.548;9.926;2023-03-01T08:43:49;17.02;;;9.32;;
17953;SDS011;9102;53.548;9.926;2023-03-01T08:46:17;17.95;;;9.55;;
17953;SDS011;9102;53.548;9.926;2023-03-01T08:48:44;16.00;;;8.90;;
17953;SDS011;9102;53.548;9.926;2023-03-01T08:51:12;17.55;;;9.25;;
17953;SDS011;9102;53.548;9.926;2023-03-01T08:53:40;17.20;;;9.15;;
17953;SDS011;9102;53.548;9.926;2023-03-01T08:56:07;14.50;;;8.20;;
17953;SDS011;9102;53.548;9.926;2023-03-01T08:58:35;14.43;;;8.23;;
17953;SDS011;9102;53.548;9.926;2023-03-01T09:01:07;16.10;;;9.15;;
17953;SDS011;9102;53.548;9.926;2023-03-01T09:03:35;23.27;;;11.52;;
17953;SDS011;9102;53.548;9.926;2023-03-01T09:06:02;13.45;;;6.43;;
17953;SDS011;9102;53.548;9.926;2023-03-01T09:08:30;10.40;;;6.05;;
17953;SDS011;9102;53.548;9.926;2023-03-01T09:11:00;10.20;;;6.05;;
17953;SDS011;9102;53.548;9.926;2023-03-01T09:13:27;14.75;;;6.00;;
17953;SDS011;9102;53.548;9.926;2023-03-01T09:19:19;12.25;;;5.90;;
17953;SDS011;9102;53.548;9.926;2023-03-01T09:21:46;13.93;;;6.32;;
17953;SDS011;9102;53.548;9.926;2023-03-01T09:24:18;12.95;;;6.20;;
17953;SDS011;9102;53.548;9.926;2023-03-01T09:26:46;12.80;;;6.35;;
17953;SDS011;9102;53.548;9.926;2023-03-01T09:29:13;11.55;;;6.82;;
17953;SDS011;9102;53.548;9.926;2023-03-01T09:31:41;16.15;;;7.18;;
17953;SDS011;9102;53.548;9.926;2023-03-01T09:34:09;14.55;;;7.82;;
17953;SDS011;9102;53.548;9.926;2023-03-01T09:36:37;27.55;;;12.07;;
17953;SDS011;9102;53.548;9.926;2023-03-01T09:39:04;20.45;;;9.25;;
17953;SDS011;9102;53.548;9.926;2023-03-01T09:41:42;16.85;;;9.57;;
17953;SDS011;9102;53.548;9.926;2023-03-01T09:44:16;20.08;;;10.25;;
17953;SDS011;9102;53.548;9.926;2023-03-01T09:46:52;18.95;;;10.55;;
17953;SDS011;9102;53.548;9.926;2023-03-01T09:49:19;20.50;;;10.73;;
17953;SDS011;9102;53.548;9.926;2023-03-01T09:51:55;18.17;;;10.38;;
17953;SDS011;9102;53.548;9.926;2023-03-01T09:54:26;23.40;;;11.18;;
17953;SDS011;9102;53.548;9.926;2023-03-01T09:56:59;21.80;;;11.07;;
17953;SDS011;9102;53.548;9.926;2023-03-01T09:59:33;27.85;;;11.57;;
17953;SDS011;9102;53.548;9.926;2023-03-01T10:02:18;23.73;;;11.55;;
17953;SDS011;9102;53.548;9.926;2023-03-01T10:04:50;25.05;;;11.57;;
17953;SDS011;9102;53.548;9.926;2023-03-01T10:07:27;22.85;;;11.20;;
17953;SDS011;9102;53.548;9.926;2023-03-01T10:09:59;17.10;;;10.40;;
17953;SDS011;9102;53.548;9.926;2023-03-01T10:12:31;22.38;;;10.88;;
17953;SDS011;9102;53.548;9.926;2023-03-01T10:15:02;20.67;;;10.68;;
17953;SDS011;9102;53.548;9.926;2023-03-01T10:17:36;19.98;;;10.63;;
17953;SDS011;9102;53.548;9.926;2023-03-01T10:20:10;19.83;;;10.65;;
17953;SDS011;9102;53.548;9.926;2023-03-01T10:22:43;17.10;;;10.43;;
17953;SDS011;9102;53.548;9.926;2023-03-01T10:25:15;17.02;;;10.40;;
17953;SDS011;9102;53.548;9.926;2023-03-01T10:27:48;21.75;;;10.95;;
17953;SDS011;9102;53.548;9.926;2023-03-01T10:30:19;19.50;;;11.02;;
17953;SDS011;9102;53.548;9.926;2023-03-01T10:32:54;25.83;;;10.98;;
17953;SDS011;9102;53.548;9.926;2023-03-01T10:35:24;20.55;;;10.10;;
17953;SDS011;9102;53.548;9.926;2023-03-01T10:37:57;17.88;;;9.35;;
17953;SDS011;9102;53.548;9.926;2023-03-01T10:40:28;18.98;;;10.38;;
17953;SDS011;9102;53.548;9.926;2023-03-01T10:42:57;20.85;;;10.70;;
17953;SDS011;9102;53.548;9.926;2023-03-01T10:45:33;15.85;;;9.48;;
17953;SDS011;9102;53.548;9.926;2023-03-01T10:48:06;20.75;;;9.70;;
17953;SDS011;9102;53.548;9.926;2023-03-01T10:50:39;20.00;;;9.60;;
17953;SDS011;9102;53.548;9.926;2023-03-01T10:53:16;18.98;;;9.82;;
17953;SDS011;9102;53.548;9.926;2023-03-01T10:55:48;19.65;;;9.60;;
17953;SDS011;9102;53.548;9.926;2023-03-01T10:58:24;27.85;;;11.88;;
17953;SDS011;9102;53.548;9.926;2023-03-01T11:00:52;34.08;;;11.68;;
17953;SDS011;9102;53.548;9.926;2023-03-01T11:03:21;29.38;;;10.80;;
17953;SDS011;9102;53.548;9.926;2023-03-01T11:05:54;21.58;;;10.77;;
17953;SDS011;9102;53.548;9.926;2023-03-01T11:08:36;15.82;;;9.40;;
17953;SDS011;9102;53.548;9.926;2023-03-01T11:11:15;16.48;;;9.05;;
17953;SDS011;9102;53.548;9.926;2023-03-01T11:13:47;20.10;;;8.55;;
17953;SDS011;9102;53.548;9.926;2023-03-01T11:16:22;17.63;;;9.02;;
17953;SDS011;9102;53.548;9.926;2023-03-01T11:19:04;15.77;;;8.48;;
17953;SDS011;9102;53.548;9.926;2023-03-01T11:21:44;13.98;;;8.20;;
17953;SDS011;9102;53.548;9.926;2023-03-01T11:24:19;16.02;;;9.85;;
17953;SDS011;9102;53.548;9.926;2023-03-01T11:26:51;20.67;;;10.05;;
17953;SDS011;9102;53.548;9.926;2023-03-01T11:29:25;18.63;;;9.45;;
17953;SDS011;9102;53.548;9.926;2023-03-01T11:31:56;18.10;;;8.95;;
17953;SDS011;9102;53.548;9.926;2023-03-01T11:34:31;18.08;;;8.35;;
17953;SDS011;9102;53.548;9.926;2023-03-01T11:37:10;13.32;;;7.28;;
17953;SDS011;9102;53.548;9.926;2023-03-01T11:39:45;15.32;;;8.32;;
17953;SDS011;9102;53.548;9.926;2023-03-01T11:42:17;15.60;;;8.02;;
17953;SDS011;9102;53.548;9.926;2023-03-01T11:44:47;16.00;;;7.78;;
17953;SDS011;9102;53.548;9.926;2023-03-01T11:50:10;17.48;;;7.35;;
17953;SDS011;9102;53.548;9.926;2023-03-01T11:52:52;16.63;;;8.23;;
17953;SDS011;9102;53.548;9.926;2023-03-01T11:55:33;18.50;;;9.50;;
17953;SDS011;9102;53.548;9.926;2023-03-01T11:58:22;9.50;;;5.13;;
17953;SDS011;9102;53.548;9.926;2023-03-01T12:01:07;5.80;;;2.88;;
17953;SDS011;9102;53.548;9.926;2023-03-01T12:03:45;9.57;;;4.45;;
17953;SDS011;9102;53.548;9.926;2023-03-01T12:06:36;8.80;;;4.82;;
17953;SDS011;9102;53.548;9.926;2023-03-01T12:09:14;9.00;;;4.13;;
17953;SDS011;9102;53.548;9.926;2023-03-01T12:11:55;12.45;;;5.30;;
17953;SDS011;9102;53.548;9.926;2023-03-01T12:14:44;11.55;;;5.38;;
17953;SDS011;9102;53.548;9.926;2023-03-01T12:17:34;11.90;;;5.93;;
17953;SDS011;9102;53.548;9.926;2023-03-01T12:20:18;10.57;;;5.38;;
17953;SDS011;9102;53.548;9.926;2023-03-01T12:23:00;13.85;;;5.50;;
17953;SDS011;9102;53.548;9.926;2023-03-01T12:25:41;11.07;;;5.63;;
17953;SDS011;9102;53.548;9.926;2023-03-01T12:28:19;9.85;;;4.50;;
17953;SDS011;9102;53.548;9.926;2023-03-01T12:31:17;12.13;;;5.35;;
17953;SDS011;9102;53.548;9.926;2023-03-01T12:34:29;12.10;;;5.80;;
17953;SDS011;9102;53.548;9.926;2023-03-01T12:37:16;12.73;;;5.05;;
17953;SDS011;9102;53.548;9.926;2023-03-01T12:39:52;10.38;;;5.13;;
17953;SDS011;9102;53.548;9.926;2023-03-01T12:42:45;9.52;;;5.25;;
17953;SDS011;9102;53.548;9.926;2023-03-01T12:45:29;9.18;;;5.30;;
17953;SDS011;9102;53.548;9.926;2023-03-01T12:48:18;10.07;;;5.68;;
17953;SDS011;9102;53.548;9.926;2023-03-01T12:50:55;11.48;;;5.22;;
17953;SDS011;9102;53.548;9.926;2023-03-01T12:53:26;12.18;;;5.72;;
17953;SDS011;9102;53.548;9.926;2023-03-01T12:55:56;9.85;;;5.93;;
17953;SDS011;9102;53.548;9.926;2023-03-01T12:58:28;8.50;;;4.63;;
17953;SDS011;9102;53.548;9.926;2023-03-01T13:01:04;8.00;;;4.75;;
17953;SDS011;9102;53.548;9.926;2023-03-01T13:03:44;7.88;;;4.35;;
17953;SDS011;9102;53.548;9.926;2023-03-01T13:06:40;12.45;;;5.20;;
17953;SDS011;9102;53.548;9.926;2023-03-01T13:09:14;12.43;;;5.32;;
17953;SDS011;9102;53.548;9.926;2023-03-01T13:11:48;11.13;;;5.55;;
17953;SDS011;9102;53.548;9.926;2023-03-01T13:17:32;9.20;;;4.50;;
17953;SDS011;9102;53.548;9.926;2023-03-01T13:20:11;8.60;;;4.90;;
17953;SDS011;9102;53.548;9.926;2023-03-01T13:22:42;10.93;;;5.22;;
17953;SDS011;9102;53.548;9.926;2023-03-01T13:25:12;9.68;;;5.10;;
17953;SDS011;9102;53.548;9.926;2023-03-01T13:27:43;10.55;;;5.55;;
17953;SDS011;9102;53.548;9.926;2023-03-01T13:33:37;11.65;;;5.40;;
17953;SDS011;9102;53.548;9.926;2023-03-01T13:39:30;11.45;;;6.05;;
17953;SDS011;9102;53.548;9.926;2023-03-01T13:42:25;8.35;;;5.53;;
17953;SDS011;9102;53.548;9.926;2023-03-01T13:45:15;11.52;;;4.88;;
17953;SDS011;9102;53.548;9.926;2023-03-01T13:47:49;8.95;;;5.22;;
17953;SDS011;9102;53.548;9.926;2023-03-01T13:50:22;13.13;;;6.45;;
17953;SDS011;9102;53.548;9.926;2023-03-01T13:52:52;11.77;;;6.90;;
17953;SDS011;9102;53.548;9.926;2023-03-01T13:55:23;12.00;;;7.13;;
17953;SDS011;9102;53.548;9.926;2023-03-01T13:57:56;15.43;;;7.53;;
17953;SDS011;9102;53.548;9.926;2023-03-01T14:00:26;12.48;;;6.57;;
17953;SDS011;9102;53.548;9.926;2023-03-01T14:03:02;12.60;;;7.40;;
17953;SDS011;9102;53.548;9.926;2023-03-01T14:05:32;10.95;;;6.32;;
17953;SDS011;9102;53.548;9.926;2023-03-01T14:08:01;14.77;;;6.90;;
17953;SDS011;9102;53.548;9.926;2023-03-01T14:10:30;13.68;;;7.13;;
17953;SDS011;9102;53.548;9.926;2023-03-01T14:13:04;13.65;;;6.68;;
17953;SDS011;9102;53.548;9.926;2023-03-01T14:15:47;9.73;;;6.18;;
17953;SDS011;9102;53.548;9.926;2023-03-01T14:18:23;12.73;;;5.80;;
17953;SDS011;9102;53.548;9.926;2023-03-01T14:20:54;14.10;;;6.20;;
17953;SDS011;9102;53.548;9.926;2023-03-01T14:23:22;16.58;;;6.93;;
17953;SDS011;9102;53.548;9.926;2023-03-01T14:25:52;15.70;;;6.80;;
17953;SDS011;9102;53.548;9.926;2023-03-01T14:28:23;12.55;;;6.93;;
17953;SDS011;9102;53.548;9.926;2023-03-01T14:30:52;12.30;;;6.60;;
17953;SDS011;9102;53.548;9.926;2023-03-01T14:33:22;13.10;;;6.53;;
17953;SDS011;9102;53.548;9.926;2023-03-01T14:35:56;12.43;;;6.50;;
17953;SDS011;9102;53.548;9.926;2023-03-01T14:38:28;15.05;;;6.32;;
17953;SDS011;9102;53.548;9.926;2023-03-01T14:40:58;11.52;;;6.28;;
17953;SDS011;9102;53.548;9.926;2023-03-01T14:43:27;17.02;;;6.15;;
17953;SDS011;9102;53.548;9.926;2023-03-01T14:45:56;13.35;;;6.75;;
17953;SDS011;9102;53.548;9.926;2023-03-01T14:48:23;11.70;;;5.82;;
17953;SDS011;9102;53.548;9.926;2023-03-01T14:50:52;11.90;;;5.97;;
17953;SDS011;9102;53.548;9.926;2023-03-01T14:53:22;12.75;;;5.85;;
17953;SDS011;9102;53.548;9.926;2023-03-01T14:55:51;15.70;;;5.80;;
17953;SDS011;9102;53.548;9.926;2023-03-01T14:58:21;9.93;;;5.57;;
17953;SDS011;9102;53.548;9.926;2023-03-01T15:00:50;14.85;;;5.75;;
17953;SDS011;9102;53.548;9.926;2023-03-01T15:03:25;11.18;;;5.70;;
17953;SDS011;9102;53.548;9.926;2023-03-01T15:05:58;10.75;;;5.60;;
17953;SDS011;9102;53.548;9.926;2023-03-01T15:08:27;11.35;;;5.70;;
17953;SDS011;9102;53.548;9.926;2023-03-01T15:10:59;16.80;;;5.78;;
17953;SDS011;9102;53.548;9.926;2023-03-01T15:13:29;12.48;;;5.53;;
17953;SDS011;9102;53.548;9.926;2023-03-01T15:16:07;11.85;;;5.63;;
17953;SDS011;9102;53.548;9.926;2023-03-01T15:18:36;13.38;;;5.75;;
17953;SDS011;9102;53.548;9.926;2023-03-01T15:21:15;10.75;;;5.90;;
17953;SDS011;9102;53.548;9.926;2023-03-01T15:23:47;10.25;;;5.75;;
17953;SDS011;9102;53.548;9.926;2023-03-01T15:26:23;15.13;;;6.40;;
17953;SDS011;9102;53.548;9.926;2023-03-01T15:28:52;11.48;;;6.53;;
17953;SDS011;9102;53.548;9.926;2023-03-01T15:31:24;14.88;;;5.88;;
17953;SDS011;9102;53.548;9.926;2023-03-01T15:33:52;15.95;;;6.25;;
17953;SDS011;9102;53.548;9.926;2023-03-01T15:36:40;11.70;;;6.28;;
17953;SDS011;9102;53.548;9.926;2023-03-01T15:39:27;11.85;;;6.45;;
17953;SDS011;9102;53.548;9.926;2023-03-01T15:42:02;15.50;;;6.80;;
17953;SDS011;9102;53.548;9.926;2023-03-01T15:44:30;11.63;;;6.25;;